Briefing drone pour La voulte-sur-rhone

Rechercher une autre localisation

Conditions de vol :


Nous sommes le : Vendredi 30 juillet 2021
Il est 04:05 UTC (06:05 LT)

Lever de soleil : 03:58 UTC (05:58 LT)
Coucher de soleil : 19:36 UTC (21:36 LT)

Météo

L'essentiel des conditions de vol

VIGILANCE MÉTÉO FRANCE - Ardèche (07)
Vigilance Jaune : Orages
CARTE TEMSI
CARTES DES FRONTS
METAR de LFLU
LFLU 291800Z AUTO 36005KT CAVOK 29/14 Q1011

Date d'émission: 29/07/2021
Heure d'émission: 18:00 UTC
Vent: 360° pour 5 KT (9 km/h)
Visibilité horizontale: > 10 km
Plafond : Plafond et visibilité OK (CAVOK)
Température: 29 °C
Point de rosée: 14 °C
Humidité: 40%
Pression (QNH): 1011 hPa
Prévision 24h pour Valence (11 km)
Vent : 8° pour 4 KT (13 km/h)
Temperature Maxi: 19 °C
Temperature Min: 19 °C
Humidité : 92%
Condition : Légère pluie



Warning: count(): Parameter must be an array or an object that implements Countable in /homepages/6/d509196549/htdocs/droneoxygene/briefing.php on line 743
WEBCAM POUR LA VOULTE-SUR-RHONE

Réglementation

Voler en sécurité

CARTES AERONAUTIQUE 1/500.000
CARTES VAC (LFLU)
SUP AIP




Chargement des AIP...
NOTAM (LA VOULTE-SUR-RHONE + Terrain à proximité / FIR )




Chargement des NOTAMS...
CONTACT PREFECTURE 07


Avertissement : Les données mises à disposition sont indicatives. Oxygène Drone ne pourra être tenu responsable de dégâts causés aux biens et aux personnes.